Nearby METAR Reports

 

KSJC - San Jose, California, USA
Distance from station: NE 9mi, 14km
Updated: Sun, 15-Jul-2018 4:53pm PDT
Few Clouds
Few Clouds
 Wind from WNW
Wind: WNW 12 mph , 19 km/h
Temperature: 75°F , 24°C
Dew Point: 57°F , 14°C
Humidity: 54%
Barometer: 29.93 inHg , 1013.5 hPa
Clouds: Few Clouds
Visibility: 10 miles , 16 km
Cloud details: Few Clouds 4000 ft
2018/07/15 23:53 KSJC 152353Z 29010KT 10SM FEW040 24/14 A2993 RMK AO2 SLP135 FU FEW040 T02440144 10256 20211 56013
KNUQ - Moffett Nas/Mtn, California, USA
Distance from station: N 9mi, 14km
Updated: Sun, 15-Jul-2018 4:56pm PDT
Clear
Clear
 Wind from NNW
Wind: NNW 12 mph , 19 km/h, Gust: 20 mph , 31 km/h
Temperature: 70°F , 21°C
Dew Point: 57°F , 14°C
Humidity: 64%
Barometer: 29.95 inHg , 1014.2 hPa
Clouds: Clear
Visibility: 10 miles , 16 km
2018/07/15 23:56 KNUQ 152356Z AUTO 34010G17KT 10SM CLR 21/14 A2995 RMK AO2 SLP143 T02060144 10211 20183 56014
 
KPAO - Palo Alto, California, USA
Distance from station: NNW 14mi, 23km
Updated: Sun, 15-Jul-2018 4:47pm PDT
Clear
Clear
 Wind from NNW
Wind: NNW 18 mph , 30 km/h
Barometer: 29.95 inHg , 1014.2 hPa
Clouds: Clear
Visibility: 10 miles , 16 km
2018/07/15 23:47 KPAO 152347Z 34016KT 10SM SKC A2995
KRHV - San Jose/Reid, California, USA
Distance from station: ENE 12mi, 19km
Updated: Sun, 15-Jul-2018 4:47pm PDT
Clear
Clear
 Wind from WNW
Wind: WNW 8 mph , 13 km/h
Temperature: 81°F , 27°C
Heat Index: 81°F , 27°C
Dew Point: 59°F , 15°C
Humidity: 48%
Barometer: 29.91 inHg , 1012.9 hPa
Clouds: Clear
Visibility: 10 miles , 16 km
2018/07/15 23:47 KRHV 152347Z 30007KT 10SM SKC 27/15 A2991
 
KOAK - Oakland, California, USA
Distance from station: NNW 31mi, 50km
Updated: Sun, 15-Jul-2018 4:53pm PDT
Few Clouds
Few Clouds
 Wind from WNW
Wind: WNW 18 mph , 30 km/h
Temperature: 66°F , 19°C
Dew Point: 55°F , 13°C
Humidity: 68%
Barometer: 29.96 inHg , 1014.6 hPa
Clouds: Few Clouds
Visibility: 10 miles , 16 km
Cloud details: Few Clouds 1000 ft
Few Clouds 4000 ft
2018/07/15 23:53 KOAK 152353Z 29016KT 10SM FEW010 FEW040 19/13 A2996 RMK AO2 SLP144 T01940128 10206 20167 58012
KSQL - San Carlos Airpo, California, USA
Distance from station: NW 21mi, 34km
Updated: Sun, 15-Jul-2018 4:47pm PDT
Clear
Clear
 Wind from W
Wind: W 9 mph , 15 km/h
Temperature: 75°F , 24°C
Dew Point: 55°F , 13°C
Humidity: 50%
Barometer: 29.94 inHg , 1013.9 hPa
Clouds: Clear
Visibility: 10 miles , 16 km
2018/07/15 23:47 KSQL 152347Z 28008KT 10SM SKC 24/13 A2994
 
KSFO - San Francisco, California, USA
Distance from station: NW 30mi, 49km
Updated: Sun, 15-Jul-2018 4:56pm PDT
Few Clouds
Few Clouds
 Wind from WNW
Wind: WNW 24 mph , 39 km/h
Temperature: 66°F , 19°C
Dew Point: 54°F , 12°C
Humidity: 64%
Barometer: 29.95 inHg , 1014.2 hPa
Clouds: Few Clouds
Visibility: 10 miles , 16 km
Cloud details: Few Clouds 1000 ft
Few Clouds 3000 ft
2018/07/15 23:56 KSFO 152356Z 29021KT 10SM FEW010 FEW030 19/12 A2995 RMK AO2 PK WND 29027/2336 SLP140 T01940117 10206 20178 58011
KE16 - San Martin, California, USA
Distance from station: ESE 27mi, 43km
Updated: Sun, 15-Jul-2018 5:35pm PDT
Clear
Clear
 Wind from ESE
Wind: ESE 12 mph , 19 km/h
Temperature: 79°F , 26°C
Dew Point: 57°F , 14°C
Humidity: 48%
Barometer: 29.93 inHg , 1013.5 hPa
Clouds: Clear
Visibility: 10 miles , 16 km
2018/07/16 00:35 KE16 160035Z AUTO 12010KT 10SM CLR 26/14 A2993 RMK AO2
 
KWVI - Watsonville, California, USA
Distance from station: SSE 27mi, 44km
Updated: Sun, 15-Jul-2018 4:53pm PDT
Clear
Clear
 Wind from SSW
Wind: SSW 10 mph , 17 km/h
Temperature: 64°F , 18°C
Dew Point: 55°F , 13°C
Humidity: 73%
Barometer: 29.98 inHg , 1015.2 hPa
Clouds: Clear
Visibility: 10 miles , 16 km
2018/07/15 23:53 KWVI 152353Z AUTO 20009KT 10SM CLR 18/13 A2998 RMK AO2 SLP151 T01830133 10206 20161 58013
KHAF - Half Moon Bay, California, USA
Distance from station: WNW 31mi, 50km
Updated: Sun, 15-Jul-2018 5:40pm PDT
Overcast
Overcast
 Wind from WNW
Wind: WNW 7 mph , 11 km/h
Temperature: 59°F , 15°C
Dew Point: 55°F , 13°C
Humidity: 88%
Barometer: 29.99 inHg , 1015.6 hPa
Clouds: Overcast
Visibility: 7 miles , 11 km
Cloud details: Overcast 1300 ft
2018/07/16 00:40 KHAF 160040Z AUTO 29006KT 7SM OVC013 15/13 A2999 RMK AO2
 
KHWD - Hayward, California, USA
Distance from station: N 28mi, 44km
Updated: Sun, 15-Jul-2018 4:54pm PDT
Clear
Clear
 Wind from WNW
Wind: WNW 17 mph , 28 km/h
Temperature: 70°F , 21°C
Dew Point: 54°F , 12°C
Humidity: 57%
Barometer: 29.95 inHg , 1014.2 hPa
Clouds: Clear
Visibility: 10 miles , 16 km
2018/07/15 23:54 KHWD 152354Z 29015KT 10SM CLR 21/12 A2995 RMK AO2 SLP150 T02110122 10222 20183 56013
KLVK - Livermore, California, USA
Distance from station: NNE 31mi, 51km
Updated: Sun, 15-Jul-2018 4:53pm PDT
Clear
Clear
 Wind from WNW
Wind: WNW 14 mph , 22 km/h
Temperature: 82°F , 28°C
Dew Point: 50°F , 10°C
Humidity: 32%
Barometer: 29.90 inHg , 1012.5 hPa
Clouds: Clear
Visibility: 10 miles , 16 km
2018/07/15 23:53 KLVK 152353Z 29012KT 10SM CLR 28/10 A2990 RMK AO2 SLP122 T02830100 10306 20222 56014